メインページ
METAR-TAF:

METAR-TAF

空港 :

ヌアクショット, モーリタニア

ヌアクショット空港

緯度: 18-18-36N, 経度: 015-58-11W, 海抜: 3m

現時点の気象観測

当レポートは25分前の06:00(UTC)に作成
北東の風 7kt
気温 12°C
湿度 50%
気圧 1016 hPa
視程: 7000m

METAR: GQNO 140600Z 04007KT 7000 NSC 12/02 Q1016 NOSIG

時間: 06:25 (06:25 UTC)

予報

当レポートは1時間25分前の05:00(UTC)に作成
予報は14日の 06時(UTC)から 15日の 12時(UTC)まで有効
北東の風 13kt
視程: 6000m
14日の 09時(UTC)から 14日の 17時(UTC)まで一時的に
視程: 2500m
風砂

TAF: GQNO 140500Z 1406/1512 04013KT 6000 NSC TEMPO 1409/1417 2500 BLSA

4,000以上の空港の気象観測と天気予報(METAR報とTAF報)

利用可能な観測所は地図上に黄色い丸と赤い丸で示す。

丸の上にカーソルを重ねると観測所名を参照できる。

次にクリックすると気象観測と天気予報を参照できる。

マップの切り替え:黒色「×」印の緑ボタンをクリックして拡大、「-」印の緑ボタンをクリックして縮小、緑色の三角印をクリックして隣りの地図に切り替え


METAR-TAF: